< Typhoon 196728 1967 Season Typhoon 196730 >
Typhoon 196729 (NO-NAME)
General InformationTrack Information on Google Maps || Disaster Info.ResourceGoogle EarthGE AnimationAtom FeedGeoJSON
Detalied Best Track (Time Zone = UTC)
Year Month Day Hour Lat. Long. Pressure (hPa) Wind (kt) Class Image Chart
1967 9 16 06 23.6 153.0 1006 0 2 -- Chart
1967 9 16 12 25.5 152.3 1006 0 2 -- Chart
1967 9 16 18 26.2 151.0 1006 0 2 -- Chart
1967 9 17 00 26.7 149.6 1006 0 2 -- Chart
1967 9 17 06 27.3 148.2 1006 0 2 -- Chart
1967 9 17 12 28.6 147.2 1006 0 2 -- Chart
1967 9 17 18 30.0 146.9 1004 0 2 -- Chart
1967 9 18 00 31.5 146.3 1002 0 2 -- Chart
1967 9 18 06 33.0 146.1 1000 0 2 -- Chart
1967 9 18 12 35.3 146.5 998 0 9 -- Chart
1967 9 18 18 38.0 148.0 998 0 9 -- Chart
1967 9 19 00 40.4 150.0 996 0 6 -- Chart
1967 9 19 06 42.0 152.0 994 0 6 -- Chart
1967 9 19 12 44.0 156.0 994 0 6 -- Chart
1967 9 19 18 46.0 161.0 994 0 6 -- Chart
1967 9 20 00 46.8 165.0 994 0 6 -- Chart
1967 9 20 06 47.3 168.8 992 0 6 -- Chart
1967 9 20 12 47.3 172.9 990 0 6 -- Chart
1967 9 20 18 47.6 177.0 986 0 6 -- Chart
1967 9 21 00 49.0 183.0 984 0 6 -- Chart
Japan Meteorological Agency Best Track Data | Correction Date : 1991-07-16
< Typhoon 196728 1967 Season Typhoon 196730 >

Help